createdAt,value
2019-04-04T00:01:38.738Z,5.13
2019-04-04T00:04:07.356Z,5.80
2019-04-04T00:06:35.047Z,5.87
2019-04-04T00:09:02.683Z,5.60
2019-04-04T00:11:30.379Z,5.43
2019-04-04T00:13:57.849Z,5.93
2019-04-04T00:16:25.361Z,6.60
2019-04-04T00:18:52.820Z,6.00
2019-04-04T00:21:20.306Z,6.10
2019-04-04T00:23:47.905Z,6.20
2019-04-04T00:26:15.368Z,5.95
2019-04-04T00:28:44.104Z,6.23
2019-04-04T00:31:11.310Z,5.77
2019-04-04T00:33:38.910Z,5.77
2019-04-04T00:36:06.692Z,6.60
2019-04-04T00:38:34.166Z,6.17
2019-04-04T00:41:01.648Z,6.47
2019-04-04T00:43:29.242Z,5.73
2019-04-04T00:45:56.729Z,6.33
2019-04-04T00:48:24.205Z,6.20
2019-04-04T00:50:51.713Z,6.20
2019-04-04T00:53:19.274Z,6.50
2019-04-04T00:55:47.003Z,7.30
2019-04-04T00:58:15.733Z,6.53
2019-04-04T01:00:43.301Z,6.53
2019-04-04T01:03:10.781Z,5.70
2019-04-04T01:05:39.028Z,6.53
2019-04-04T01:08:06.934Z,7.03
2019-04-04T01:10:34.069Z,6.90
2019-04-04T01:13:01.539Z,7.07
2019-04-04T01:15:30.963Z,6.10
2019-04-04T01:17:56.518Z,6.80
2019-04-04T01:20:24.000Z,6.30
2019-04-04T01:22:51.487Z,6.53
2019-04-04T01:25:19.051Z,7.03
2019-04-04T01:27:46.563Z,6.63
2019-04-04T01:30:14.033Z,7.13
2019-04-04T01:32:41.500Z,6.60
2019-04-04T01:35:08.987Z,6.53
2019-04-04T01:37:36.556Z,7.10
2019-04-04T01:40:04.065Z,7.50
2019-04-04T01:42:31.540Z,7.20
2019-04-04T01:44:59.019Z,6.70
2019-04-04T01:47:26.500Z,7.63
2019-04-04T01:49:53.978Z,7.53
2019-04-04T01:52:21.537Z,7.63
2019-04-04T01:54:49.035Z,8.30
2019-04-04T01:57:17.586Z,7.53
2019-04-04T01:59:45.173Z,8.13
2019-04-04T02:02:12.818Z,7.90
2019-04-04T02:04:40.283Z,7.40
2019-04-04T02:07:07.759Z,7.37
2019-04-04T02:09:36.067Z,7.80
2019-04-04T02:12:03.886Z,7.50
2019-04-04T02:14:31.367Z,8.30
2019-04-04T02:16:58.914Z,8.23
2019-04-04T02:19:26.397Z,8.70
2019-04-04T02:21:54.744Z,8.70
2019-04-04T02:24:22.317Z,8.13
2019-04-04T02:26:50.814Z,7.63
2019-04-04T02:29:19.789Z,7.80
2019-04-04T02:31:53.249Z,8.53
2019-04-04T02:34:16.777Z,7.57
2019-04-04T02:36:44.261Z,7.93
2019-04-04T02:39:13.436Z,7.97
2019-04-04T02:41:41.009Z,8.87
2019-04-04T02:44:08.635Z,8.33
2019-04-04T02:46:36.134Z,7.17
2019-04-04T02:49:04.423Z,8.07
2019-04-04T02:51:32.751Z,8.47
2019-04-04T02:54:00.276Z,8.10
2019-04-04T02:56:28.511Z,7.57
2019-04-04T02:58:55.993Z,8.03
2019-04-04T03:01:23.556Z,7.63
2019-04-04T03:03:51.034Z,7.83
2019-04-04T03:06:18.517Z,8.37
2019-04-04T03:08:47.031Z,8.77
2019-04-04T03:11:14.507Z,7.57
2019-04-04T03:13:41.992Z,8.37
2019-04-04T03:16:09.494Z,8.27
2019-04-04T03:18:38.158Z,7.23
2019-04-04T03:21:06.130Z,8.17
2019-04-04T03:23:33.991Z,8.20
2019-04-04T03:26:01.110Z,7.37
2019-04-04T03:28:31.501Z,8.10
2019-04-04T03:31:02.272Z,7.53
2019-04-04T03:33:29.462Z,7.43
2019-04-04T03:35:51.927Z,7.83
2019-04-04T03:38:19.837Z,7.27
2019-04-04T03:40:47.455Z,7.47
2019-04-04T03:43:16.829Z,6.90
2019-04-04T03:45:44.379Z,6.93
2019-04-04T03:48:17.021Z,6.87
2019-04-04T03:50:39.378Z,6.77
2019-04-04T03:53:07.687Z,6.87
2019-04-04T03:55:35.166Z,6.43
2019-04-04T03:58:03.581Z,6.60
2019-04-04T04:00:31.238Z,6.60
2019-04-04T04:02:58.748Z,6.93
2019-04-04T04:05:26.220Z,6.43
2019-04-04T04:07:53.693Z,6.87
2019-04-04T04:10:21.423Z,6.40
2019-04-04T04:12:49.657Z,6.43
2019-04-04T04:15:17.341Z,6.83
2019-04-04T04:17:45.676Z,6.30
2019-04-04T04:20:12.491Z,6.87
2019-04-04T04:22:40.061Z,6.70
2019-04-04T04:25:08.358Z,6.47
2019-04-04T04:27:35.815Z,6.10
2019-04-04T04:30:07.262Z,5.53
2019-04-04T04:32:32.618Z,5.77
2019-04-04T04:35:00.103Z,6.13
2019-04-04T04:37:27.578Z,5.80
2019-04-04T04:39:55.182Z,5.57
2019-04-04T04:42:26.174Z,6.17
2019-04-04T04:44:50.252Z,5.70
2019-04-04T04:47:17.823Z,5.77
2019-04-04T04:49:45.308Z,5.80
2019-04-04T04:52:15.075Z,5.93
2019-04-04T04:54:41.930Z,6.90
2019-04-04T04:57:14.282Z,6.23
2019-04-04T04:59:37.079Z,5.67
2019-04-04T05:02:04.765Z,5.93
2019-04-04T05:04:33.016Z,5.80
2019-04-04T05:07:00.592Z,5.60
2019-04-04T05:09:28.076Z,5.20
2019-04-04T05:11:56.323Z,6.30
2019-04-04T05:14:23.898Z,5.63
2019-04-04T05:16:52.206Z,5.33
2019-04-04T05:19:20.447Z,5.53
2019-04-04T05:21:47.942Z,4.83
2019-04-04T05:24:18.129Z,5.47
2019-04-04T05:26:44.749Z,5.73
2019-04-04T05:29:13.995Z,5.37
2019-04-04T05:31:39.727Z,5.00
2019-04-04T05:34:07.979Z,5.13
2019-04-04T05:36:36.792Z,5.77
2019-04-04T05:39:04.535Z,5.22
2019-04-04T05:41:32.012Z,5.80
2019-04-04T05:43:59.496Z,5.13
2019-04-04T05:46:27.739Z,5.00
2019-04-04T05:48:55.241Z,5.10
2019-04-04T05:51:23.500Z,5.63
2019-04-04T05:53:51.063Z,5.60
2019-04-04T05:56:18.821Z,5.40
2019-04-04T05:58:46.313Z,4.90
2019-04-04T06:01:14.998Z,5.53
2019-04-04T06:03:43.260Z,5.43
2019-04-04T06:06:10.829Z,5.07
2019-04-04T06:08:42.507Z,7.25
2019-04-04T06:11:06.101Z,5.83
2019-04-04T06:13:33.576Z,4.93
2019-04-04T06:16:02.139Z,5.63
2019-04-04T06:18:29.528Z,4.57
2019-04-04T06:20:57.038Z,5.47
2019-04-04T06:23:25.802Z,5.17
2019-04-04T06:25:53.023Z,4.80
2019-04-04T06:28:20.528Z,5.33
2019-04-04T06:30:48.121Z,5.07
2019-04-04T06:33:16.475Z,5.13
2019-04-04T06:35:47.052Z,4.13
2019-04-04T06:38:12.315Z,4.97
2019-04-04T06:40:39.806Z,5.33
2019-04-04T06:43:10.847Z,5.13
2019-04-04T06:45:35.016Z,5.13
2019-04-04T06:48:03.510Z,5.03
2019-04-04T06:50:32.914Z,5.00
2019-04-04T06:53:00.479Z,5.30
2019-04-04T06:55:29.643Z,5.10
2019-04-04T06:57:57.545Z,4.67
2019-04-04T07:00:25.223Z,5.30
2019-04-04T07:02:56.098Z,5.27
2019-04-04T07:05:21.890Z,4.93
2019-04-04T07:07:49.437Z,4.70
2019-04-04T07:10:17.055Z,4.73
2019-04-04T07:12:44.646Z,5.77
2019-04-04T07:15:15.528Z,5.37
2019-04-04T07:17:41.158Z,5.20
2019-04-04T07:20:08.301Z,5.20
2019-04-04T07:22:35.949Z,5.57
2019-04-04T07:25:05.566Z,5.40
2019-04-04T07:27:31.386Z,5.60
2019-04-04T07:29:59.284Z,5.10
2019-04-04T07:32:27.532Z,4.77
2019-04-04T07:34:55.102Z,5.73
2019-04-04T07:37:22.779Z,5.03
2019-04-04T07:39:50.267Z,5.60
2019-04-04T07:42:17.621Z,5.07
2019-04-04T07:44:46.077Z,5.07
2019-04-04T07:47:15.912Z,5.60
2019-04-04T07:49:41.113Z,5.67
2019-04-04T07:52:08.774Z,5.17
2019-04-04T07:54:38.506Z,4.87
2019-04-04T07:57:04.522Z,5.40
2019-04-04T07:59:32.019Z,5.50
2019-04-04T08:01:59.517Z,5.03
2019-04-04T08:04:26.996Z,5.10
2019-04-04T08:06:56.201Z,5.03
2019-04-04T08:09:26.188Z,5.17
2019-04-04T08:11:52.114Z,5.53
2019-04-04T08:14:19.598Z,5.50
2019-04-04T08:16:47.166Z,5.67
2019-04-04T08:19:14.649Z,5.57
2019-04-04T08:21:42.128Z,6.03
2019-04-04T08:24:11.308Z,5.70
2019-04-04T08:26:38.783Z,5.97
2019-04-04T08:29:07.029Z,5.70
2019-04-04T08:31:36.240Z,6.27
2019-04-04T08:34:04.626Z,5.55
2019-04-04T08:36:32.143Z,5.10
2019-04-04T08:38:59.619Z,6.07
2019-04-04T08:41:27.096Z,5.97
2019-04-04T08:43:54.574Z,6.47
2019-04-04T08:46:22.051Z,5.37
2019-04-04T08:48:49.705Z,6.90
2019-04-04T08:51:18.706Z,5.17
2019-04-04T08:53:46.186Z,6.30
2019-04-04T08:56:14.436Z,5.93
2019-04-04T08:58:41.931Z,6.23
2019-04-04T09:01:10.186Z,6.13
2019-04-04T09:03:37.967Z,6.47
2019-04-04T09:06:05.525Z,6.77
2019-04-04T09:08:33.081Z,5.90
2019-04-04T09:11:00.639Z,7.40
2019-04-04T09:13:28.197Z,7.00
2019-04-04T09:15:55.869Z,6.60
2019-04-04T09:18:23.442Z,7.03
2019-04-04T09:20:52.464Z,7.13
2019-04-04T09:23:20.825Z,5.87
2019-04-04T09:25:48.395Z,6.73
2019-04-04T09:28:15.904Z,7.10
2019-04-04T09:30:43.662Z,6.87
2019-04-04T09:33:11.165Z,6.90
2019-04-04T09:35:38.734Z,6.40
2019-04-04T09:38:06.213Z,7.00
2019-04-04T09:40:34.135Z,7.63
2019-04-04T09:43:01.745Z,7.23
2019-04-04T09:45:29.408Z,7.90
2019-04-04T09:47:57.809Z,7.60
2019-04-04T09:50:25.354Z,7.47
2019-04-04T09:52:52.987Z,7.70
2019-04-04T09:55:20.493Z,7.80
2019-04-04T09:57:47.969Z,6.93
2019-04-04T10:00:16.230Z,7.33
2019-04-04T10:02:45.047Z,7.90
2019-04-04T10:05:12.624Z,7.43
2019-04-04T10:07:40.165Z,9.10
2019-04-04T10:10:08.549Z,8.57
2019-04-04T10:12:37.624Z,8.90
2019-04-04T10:15:05.105Z,8.87
2019-04-04T10:17:32.594Z,9.17
2019-04-04T10:20:00.218Z,7.43
2019-04-04T10:22:27.794Z,8.10
2019-04-04T10:24:55.457Z,7.30
2019-04-04T10:27:23.025Z,7.37
2019-04-04T10:29:50.629Z,7.97
2019-04-04T10:32:18.137Z,7.27
2019-04-04T10:34:45.766Z,7.57
2019-04-04T10:37:13.249Z,7.93
2019-04-04T10:39:40.748Z,7.50
2019-04-04T10:42:08.496Z,6.63
2019-04-04T10:44:37.199Z,6.93
2019-04-04T10:47:03.806Z,6.63
2019-04-04T10:49:31.444Z,7.47
2019-04-04T10:51:58.947Z,7.57
2019-04-04T10:54:26.524Z,8.00
2019-04-04T10:56:54.013Z,6.93
2019-04-04T10:59:22.401Z,7.03
2019-04-04T11:01:50.746Z,7.27
2019-04-04T11:04:18.237Z,6.53
2019-04-04T11:06:46.497Z,6.60
2019-04-04T11:09:13.986Z,7.37
2019-04-04T11:11:42.357Z,7.07
2019-04-04T11:14:09.833Z,6.67
2019-04-04T11:16:38.598Z,6.43
2019-04-04T11:19:06.093Z,7.47
2019-04-04T11:21:34.446Z,7.27
2019-04-04T11:24:01.911Z,6.50
2019-04-04T11:26:29.570Z,7.30
2019-04-04T11:28:57.162Z,6.87
2019-04-04T11:31:25.514Z,6.77
2019-04-04T11:33:53.082Z,5.97
2019-04-04T11:36:20.763Z,6.27
2019-04-04T11:38:48.319Z,6.33
2019-04-04T11:41:15.882Z,6.20
2019-04-04T11:43:43.422Z,6.40
2019-04-04T11:46:10.924Z,5.62
2019-04-04T11:48:39.538Z,6.33
2019-04-04T11:51:07.006Z,6.47
2019-04-04T11:53:34.494Z,5.10
2019-04-04T11:56:01.981Z,5.77
2019-04-04T11:58:29.472Z,5.73
2019-04-04T12:00:58.653Z,5.60
2019-04-04T12:03:26.155Z,5.60
2019-04-04T12:05:53.656Z,4.80
2019-04-04T12:08:21.149Z,4.90
2019-04-04T12:10:49.401Z,5.60
2019-04-04T12:13:16.894Z,5.27
2019-04-04T12:15:45.254Z,5.30
2019-04-04T12:18:12.734Z,4.90
2019-04-04T12:20:43.338Z,5.43
2019-04-04T12:23:09.453Z,5.50
2019-04-04T12:25:36.962Z,4.87
2019-04-04T12:28:05.227Z,4.20
2019-04-04T12:30:33.475Z,4.17
2019-04-04T12:33:00.983Z,5.00
2019-04-04T12:35:28.484Z,4.60
2019-04-04T12:37:55.972Z,4.70
2019-04-04T12:40:23.536Z,4.63
2019-04-04T12:42:51.226Z,4.20
2019-04-04T12:45:18.900Z,4.53
2019-04-04T12:47:46.422Z,4.63
2019-04-04T12:50:13.931Z,4.27
2019-04-04T12:52:41.486Z,3.97
2019-04-04T12:55:08.999Z,4.53
2019-04-04T12:57:36.495Z,4.57
2019-04-04T13:00:04.654Z,4.63
2019-04-04T13:02:32.126Z,4.80
2019-04-04T13:04:59.623Z,3.90
2019-04-04T13:07:27.208Z,4.10
2019-04-04T13:09:55.668Z,4.30
2019-04-04T13:12:23.178Z,3.67
2019-04-04T13:14:50.788Z,3.67
2019-04-04T13:17:19.855Z,4.33
2019-04-04T13:19:48.121Z,3.70
2019-04-04T13:22:15.842Z,3.73
2019-04-04T13:24:43.322Z,3.60
2019-04-04T13:27:11.599Z,4.00
2019-04-04T13:29:39.966Z,4.17
2019-04-04T13:32:07.452Z,3.40
2019-04-04T13:34:35.705Z,3.77
2019-04-04T13:37:03.492Z,4.10
2019-04-04T13:39:31.953Z,3.37
2019-04-04T13:41:59.446Z,4.10
2019-04-04T13:44:27.801Z,3.50
2019-04-04T13:46:55.296Z,3.27
2019-04-04T13:49:23.553Z,3.40
2019-04-04T13:51:53.066Z,3.27
2019-04-04T13:54:18.589Z,3.53
2019-04-04T13:56:46.991Z,3.47
2019-04-04T13:59:15.234Z,3.03
2019-04-04T14:01:43.129Z,3.50
2019-04-04T14:04:10.474Z,3.80
2019-04-04T14:06:38.278Z,3.07
2019-04-04T14:09:05.588Z,3.40
2019-04-04T14:11:33.089Z,3.27
2019-04-04T14:14:00.570Z,3.27
2019-04-04T14:16:28.040Z,4.10
2019-04-04T14:18:55.570Z,3.90
2019-04-04T14:21:23.934Z,4.03
2019-04-04T14:23:52.970Z,3.50
2019-04-04T14:26:19.021Z,3.93
2019-04-04T14:28:46.514Z,4.23
2019-04-04T14:31:15.609Z,3.77
2019-04-04T14:33:43.304Z,3.57
2019-04-04T14:36:11.646Z,4.13
2019-04-04T14:38:39.225Z,3.97
2019-04-04T14:41:11.436Z,3.50
2019-04-04T14:43:35.182Z,3.57
2019-04-04T14:46:05.095Z,3.23
2019-04-04T14:48:32.569Z,3.30
2019-04-04T14:51:00.839Z,2.77
2019-04-04T14:53:28.332Z,3.93
2019-04-04T14:55:55.830Z,2.57
2019-04-04T14:58:23.389Z,2.83
2019-04-04T15:00:51.022Z,3.03
2019-04-04T15:03:19.285Z,2.83
2019-04-04T15:05:46.835Z,2.87
2019-04-04T15:08:15.081Z,2.80
2019-04-04T15:10:42.581Z,2.60
2019-04-04T15:13:10.104Z,3.00
2019-04-04T15:15:37.614Z,3.70
2019-04-04T15:18:05.167Z,3.43
2019-04-04T15:20:33.522Z,3.10
2019-04-04T15:23:00.998Z,3.30
2019-04-04T15:25:28.553Z,3.20
2019-04-04T15:27:56.733Z,3.40
2019-04-04T15:30:24.265Z,3.37
2019-04-04T15:32:51.778Z,3.70
2019-04-04T15:35:19.255Z,2.80
2019-04-04T15:37:47.632Z,3.17
2019-04-04T15:40:15.112Z,3.17
2019-04-04T15:42:43.363Z,2.70
2019-04-04T15:45:11.013Z,2.90
2019-04-04T15:47:38.497Z,3.53
2019-04-04T15:50:07.701Z,3.00
2019-04-04T15:52:35.254Z,2.47
2019-04-04T15:55:03.674Z,3.27
2019-04-04T15:57:32.058Z,3.43
2019-04-04T16:00:00.413Z,3.47
2019-04-04T16:02:27.894Z,3.83
2019-04-04T16:04:56.150Z,2.83
2019-04-04T16:07:23.646Z,3.60
2019-04-04T16:09:51.997Z,3.43
2019-04-04T16:12:19.467Z,3.23
2019-04-04T16:14:46.990Z,3.90
2019-04-04T16:17:14.474Z,3.10
2019-04-04T16:19:41.946Z,4.53
2019-04-04T16:22:09.534Z,3.40
2019-04-04T16:24:37.910Z,3.70
2019-04-04T16:27:05.387Z,3.23
2019-04-04T16:29:33.644Z,3.53
2019-04-04T16:32:01.125Z,2.80
2019-04-04T16:34:29.497Z,3.50
2019-04-04T16:36:57.184Z,3.87
2019-04-04T16:39:25.430Z,3.10
2019-04-04T16:42:01.971Z,4.00
2019-04-04T16:44:22.703Z,3.13
2019-04-04T16:46:50.201Z,3.30
2019-04-04T16:49:18.558Z,3.10
2019-04-04T16:51:46.813Z,3.10
2019-04-04T16:54:14.313Z,3.30
2019-04-04T16:56:41.811Z,3.23
2019-04-04T16:59:09.327Z,3.17
2019-04-04T17:01:36.811Z,3.10
2019-04-04T17:04:05.169Z,3.47
2019-04-04T17:06:32.666Z,3.10
2019-04-04T17:09:00.905Z,3.17
2019-04-04T17:11:28.428Z,3.53
2019-04-04T17:13:55.934Z,3.10
2019-04-04T17:16:23.605Z,3.30
2019-04-04T17:18:51.930Z,3.20
2019-04-04T17:21:19.751Z,4.13
2019-04-04T17:23:48.852Z,3.10
2019-04-04T17:26:16.341Z,3.60
2019-04-04T17:28:44.696Z,3.40
2019-04-04T17:31:12.885Z,3.47
2019-04-04T17:33:40.555Z,3.17
2019-04-04T17:36:08.418Z,3.97
2019-04-04T17:38:35.830Z,4.17
2019-04-04T17:41:04.668Z,3.40
2019-04-04T17:43:32.427Z,3.30
2019-04-04T17:45:59.935Z,3.50
2019-04-04T17:48:28.061Z,3.27
2019-04-04T17:50:55.167Z,4.33
2019-04-04T17:53:23.745Z,4.05
2019-04-04T17:55:54.497Z,3.83
2019-04-04T18:00:54.090Z,3.40
2019-04-04T18:03:21.678Z,3.87
2019-04-04T18:05:49.941Z,3.90
2019-04-04T18:08:18.261Z,4.20
2019-04-04T18:10:46.465Z,4.03
2019-04-04T18:13:14.050Z,4.17
2019-04-04T18:15:41.527Z,4.57
2019-04-04T18:18:09.816Z,4.60
2019-04-04T18:20:38.050Z,4.50
2019-04-04T18:23:05.548Z,4.57
2019-04-04T18:25:33.012Z,4.53
2019-04-04T18:28:01.791Z,4.87
2019-04-04T18:30:29.276Z,4.73
2019-04-04T18:32:57.851Z,4.93
2019-04-04T18:35:25.795Z,4.87
2019-04-04T18:37:53.301Z,5.03
2019-04-04T18:40:21.543Z,5.10
2019-04-04T18:42:53.484Z,5.10
2019-04-04T18:45:17.310Z,4.40
2019-04-04T18:47:44.998Z,4.87
2019-04-04T18:50:13.239Z,5.27
2019-04-04T18:52:40.715Z,5.23
2019-04-04T18:55:19.016Z,5.20
2019-04-04T18:57:35.831Z,4.93
2019-04-04T19:00:05.666Z,5.00
2019-04-04T19:02:33.185Z,4.77
2019-04-04T19:05:00.678Z,4.73
2019-04-04T19:07:38.690Z,4.87
2019-04-04T19:09:56.417Z,4.87
2019-04-04T19:12:23.913Z,4.43
2019-04-04T19:14:52.871Z,4.80
2019-04-04T19:17:20.462Z,4.90
2019-04-04T19:19:48.013Z,5.03
2019-04-04T19:22:15.667Z,4.87
2019-04-04T19:24:44.276Z,4.87
2019-04-04T19:27:11.769Z,4.87
2019-04-04T19:29:39.249Z,5.00
2019-04-04T19:32:06.746Z,5.63
2019-04-04T19:34:34.214Z,5.67
2019-04-04T19:37:01.701Z,5.97
2019-04-04T19:39:29.160Z,6.00
2019-04-04T19:41:58.358Z,8.00
2019-04-04T19:44:26.606Z,6.00
2019-04-04T19:46:54.091Z,8.93
2019-04-04T19:49:21.640Z,7.43
2019-04-04T19:51:49.318Z,8.37
2019-04-04T19:54:19.102Z,7.53
2019-04-04T19:56:45.162Z,8.83
2019-04-04T19:59:12.778Z,9.47
2019-04-04T20:01:40.258Z,9.23
2019-04-04T20:04:07.752Z,8.37
2019-04-04T20:06:35.416Z,7.83
2019-04-04T20:09:03.840Z,9.10
2019-04-04T20:11:31.351Z,10.13
2019-04-04T20:13:59.607Z,10.23
2019-04-04T20:16:27.214Z,9.83
2019-04-04T20:18:54.859Z,10.30
2019-04-04T20:21:22.450Z,9.40
2019-04-04T20:23:50.818Z,10.67
2019-04-04T20:26:18.294Z,9.83
2019-04-04T20:28:45.859Z,9.43
2019-04-04T20:31:14.127Z,9.10
2019-04-04T20:33:41.709Z,9.33
2019-04-04T20:36:09.965Z,9.93
2019-04-04T20:38:37.669Z,10.70
2019-04-04T20:41:05.194Z,10.67
2019-04-04T20:43:42.845Z,11.00
2019-04-04T20:46:01.124Z,10.07
2019-04-04T20:48:28.641Z,9.83
2019-04-04T20:50:57.584Z,10.27
2019-04-04T20:53:25.074Z,10.47
2019-04-04T20:55:52.805Z,9.50
2019-04-04T20:58:20.305Z,10.03
2019-04-04T21:00:47.874Z,10.03
2019-04-04T21:03:15.482Z,9.90
2019-04-04T21:05:43.015Z,8.80
2019-04-04T21:08:11.908Z,10.23
2019-04-04T21:10:39.415Z,9.77
2019-04-04T21:13:07.125Z,10.47
2019-04-04T21:15:34.956Z,8.83
2019-04-04T21:18:04.520Z,10.07
2019-04-04T21:20:32.051Z,9.37
2019-04-04T21:22:59.591Z,9.53
2019-04-04T21:25:27.132Z,8.80
2019-04-04T21:27:54.650Z,9.50
2019-04-04T21:30:23.674Z,10.20
2019-04-04T21:32:51.956Z,9.83
2019-04-04T21:35:19.449Z,9.80
2019-04-04T21:37:46.926Z,10.53
2019-04-04T21:40:14.532Z,10.07
2019-04-04T21:42:42.031Z,9.87
2019-04-04T21:45:09.637Z,10.17
2019-04-04T21:47:37.125Z,11.40
2019-04-04T21:50:05.384Z,10.30
2019-04-04T21:52:32.877Z,9.83
2019-04-04T21:55:01.118Z,10.07
2019-04-04T21:57:28.682Z,9.80
2019-04-04T21:59:56.168Z,10.50
2019-04-04T22:02:23.789Z,9.83
2019-04-04T22:04:51.262Z,9.30
2019-04-04T22:07:18.868Z,10.40
2019-04-04T22:09:46.511Z,10.27
2019-04-04T22:12:13.989Z,9.90
2019-04-04T22:14:41.754Z,10.70
2019-04-04T22:17:09.418Z,11.17
2019-04-04T22:19:36.982Z,10.43
2019-04-04T22:22:04.549Z,10.90
2019-04-04T22:24:32.114Z,10.97
2019-04-04T22:27:01.110Z,10.17
2019-04-04T22:29:29.650Z,10.33
2019-04-04T22:31:57.154Z,10.13
2019-04-04T22:34:24.635Z,10.73
2019-04-04T22:36:52.197Z,10.97
2019-04-04T22:39:19.753Z,10.50
2019-04-04T22:41:47.267Z,9.93
2019-04-04T22:44:14.754Z,10.27
2019-04-04T22:46:43.280Z,10.17
2019-04-04T22:49:11.629Z,10.50
2019-04-04T22:51:39.696Z,10.80
2019-04-04T22:54:07.271Z,11.10
2019-04-04T22:56:34.959Z,11.37
2019-04-04T22:59:04.123Z,11.37
2019-04-04T23:01:31.720Z,10.73
2019-04-04T23:03:59.219Z,10.27
2019-04-04T23:06:27.575Z,10.93
2019-04-04T23:08:55.819Z,10.47
2019-04-04T23:11:23.399Z,10.07
2019-04-04T23:13:51.035Z,12.00
2019-04-04T23:16:18.616Z,10.67
2019-04-04T23:18:46.099Z,10.83
2019-04-04T23:21:13.589Z,10.73
2019-04-04T23:23:42.138Z,10.53
2019-04-04T23:26:09.621Z,10.67
2019-04-04T23:28:37.206Z,10.63
2019-04-04T23:31:04.699Z,11.57
2019-04-04T23:33:32.299Z,11.13
2019-04-04T23:35:59.869Z,11.40
2019-04-04T23:38:28.173Z,10.87
2019-04-04T23:40:56.441Z,10.97
2019-04-04T23:43:24.078Z,11.50
2019-04-04T23:45:51.570Z,10.70
2019-04-04T23:48:19.815Z,11.37
2019-04-04T23:50:47.400Z,10.53
2019-04-04T23:53:14.889Z,11.67
2019-04-04T23:55:43.132Z,12.33
2019-04-04T23:58:10.733Z,11.47
